Back to Top

Language: 

My Weather Underground Personal Weather Station Historical Data with Graphs...

Delerius Weather Station Historical Data
Daily Summary for December 15, 2017 Units:  Metric    English   Both
« Previous Day
Next Day »
Daily Weekly Monthly Yearly Custom
  High: Low: Average:
Temperature: 5.5 °C 1.2 °C 2.4 °C
Dew Point: 3.2 °C -0.9 °C 0.8 °C
Humidity: 96 % 84 % 89 %
Wind Speed: 22.5 km/h 1.6 km/h 10 km/h
Wind Gust: 37 km/h - -
Wind:- - NW
Pressure: 1011.7 hPa 986.3 hPa -
Precipitation: 0.51 mm    
Historical Graphs
 
 
Tabular Data for December 15, 2017
Time Temperature Dew Point Pressure Wind Wind Speed Wind Gust Humidity Rainfall Rate (Hourly) solar Conditions
00:03 1.7 °C 1 °C 986.3 hPa WNW 11.3 km/h 17.7 km/h 95 % 0.51 mm 0 W/m2
00:08 1.8 °C 1.1 °C 986.3 hPa NW 12.9 km/h 19.3 km/h 95 % 0.51 mm 0 W/m2
00:13 1.9 °C 1.2 °C 986.3 hPa NW 11.3 km/h 22.5 km/h 95 % 0.25 mm 0 W/m2
00:18 2 °C 1.3 °C 986.3 hPa NW 11.3 km/h 17.7 km/h 95 % 0.25 mm 0 W/m2
00:22 2.1 °C 1.4 °C 986.3 hPa NW 11.3 km/h 19.3 km/h 95 % 0.25 mm 0 W/m2
00:27 2.1 °C 1.4 °C 986.7 hPa NNW 6.4 km/h 11.3 km/h 95 % 0.25 mm 0 W/m2
00:28 2.1 °C 1.4 °C 986.7 hPa NNW 4.8 km/h 11.3 km/h 95 % 0.25 mm 0 W/m2
00:33 2.1 °C 1.4 °C 986.7 hPa NNW 8 km/h 14.5 km/h 95 % 0.51 mm 0 W/m2
00:38 2 °C 1.3 °C 986.7 hPa North 4.8 km/h 9.7 km/h 95 % 0.51 mm 0 W/m2
00:43 2 °C 1.3 °C 986.7 hPa NW 4.8 km/h 9.7 km/h 95 % 0.51 mm 0 W/m2
00:48 1.9 °C 1.2 °C 986.7 hPa NW 3.2 km/h 11.3 km/h 95 % 0.25 mm 0 W/m2
00:53 1.9 °C 1.2 °C 987 hPa NNW 3.2 km/h 9.7 km/h 95 % 0.25 mm 0 W/m2
00:58 1.9 °C 1.2 °C 987 hPa NW 6.4 km/h 12.9 km/h 95 % 0.25 mm 0 W/m2
01:03 1.9 °C 1.2 °C 987 hPa NW 6.4 km/h 14.5 km/h 95 % 0.25 mm 0 W/m2
01:08 1.8 °C 1.1 °C 987 hPa NW 4.8 km/h 9.7 km/h 95 % 0.25 mm 0 W/m2
01:13 1.8 °C 1.1 °C 987.4 hPa WNW 3.2 km/h 8 km/h 95 % 0.25 mm 0 W/m2
01:18 1.8 °C 1.1 °C 987.4 hPa WNW 3.2 km/h 8 km/h 95 % 0.25 mm 0 W/m2
01:23 1.7 °C 1 °C 987.4 hPa WNW 4.8 km/h 8 km/h 95 % 0.25 mm 0 W/m2
01:26 1.7 °C 1 °C 987.4 hPa WNW 4.8 km/h 11.3 km/h 95 % 0.25 mm 0 W/m2
01:31 1.6 °C 0.9 °C 987.4 hPa NW 3.2 km/h 9.7 km/h 95 % 0 mm 0 W/m2
01:36 1.6 °C 0.9 °C 987.4 hPa NW 6.4 km/h 14.5 km/h 95 % 0 mm 0 W/m2
01:41 1.5 °C 0.8 °C 987.4 hPa WNW 6.4 km/h 9.7 km/h 95 % 0 mm 0 W/m2
01:42 1.5 °C 0.8 °C 987.4 hPa WNW 6.4 km/h 9.7 km/h 95 % 0 mm 0 W/m2
01:47 1.5 °C 0.8 °C 987.7 hPa NW 6.4 km/h 12.9 km/h 95 % 0 mm 0 W/m2
01:49 1.4 °C 0.7 °C 987.7 hPa NW 6.4 km/h 9.7 km/h 95 % 0 mm 0 W/m2
01:54 1.4 °C 0.7 °C 987.7 hPa NW 4.8 km/h 12.9 km/h 95 % 0 mm 0 W/m2
01:59 1.4 °C 0.7 °C 987.7 hPa NW 3.2 km/h 8 km/h 95 % 0 mm 0 W/m2
02:04 1.4 °C 0.7 °C 988 hPa NW 3.2 km/h 8 km/h 95 % 0 mm 0 W/m2
02:05 1.4 °C 0.7 °C 988 hPa NW 3.2 km/h 8 km/h 95 % 0 mm 0 W/m2
02:10 1.3 °C 0.6 °C 988 hPa WNW 1.6 km/h 8 km/h 95 % 0 mm 0 W/m2
02:15 1.3 °C 0.6 °C 988 hPa WNW 3.2 km/h 6.4 km/h 95 % 0 mm 0 W/m2
02:20 1.3 °C 0.6 °C 988.4 hPa WNW 4.8 km/h 9.7 km/h 95 % 0 mm 0 W/m2
02:25 1.3 °C 0.6 °C 988.4 hPa NW 3.2 km/h 8 km/h 95 % 0 mm 0 W/m2
02:30 1.3 °C 0.6 °C 988.4 hPa WNW 4.8 km/h 8 km/h 95 % 0 mm 0 W/m2
02:36 1.3 °C 0.6 °C 988.7 hPa WNW 3.2 km/h 8 km/h 95 % 0 mm 0 W/m2
02:41 1.3 °C 0.6 °C 988.7 hPa WNW 6.4 km/h 14.5 km/h 95 % 0 mm 0 W/m2
02:46 1.4 °C 0.7 °C 988.7 hPa NW 4.8 km/h 9.7 km/h 95 % 0 mm 0 W/m2
02:51 1.5 °C 0.8 °C 989.1 hPa NW 6.4 km/h 11.3 km/h 95 % 0 mm 0 W/m2
02:56 1.6 °C 0.9 °C 989.4 hPa NW 8 km/h 12.9 km/h 95 % 0 mm 0 W/m2
03:01 1.6 °C 1.1 °C 989.4 hPa WNW 8 km/h 12.9 km/h 96 % 0 mm 0 W/m2
03:06 1.7 °C 1.1 °C 989.4 hPa WNW 8 km/h 14.5 km/h 96 % 0 mm 0 W/m2
03:13 1.7 °C 1 °C 989.4 hPa WNW 8 km/h 14.5 km/h 95 % 0 mm 0 W/m2
03:18 1.6 °C 0.9 °C 989.7 hPa WNW 8 km/h 12.9 km/h 95 % 0 mm 0 W/m2
03:23 1.6 °C 0.9 °C 989.7 hPa WNW 9.7 km/h 12.9 km/h 95 % 0 mm 0 W/m2
03:28 1.6 °C 0.9 °C 989.7 hPa WNW 6.4 km/h 12.9 km/h 95 % 0 mm 0 W/m2
03:33 1.6 °C 0.9 °C 990.1 hPa WNW 9.7 km/h 14.5 km/h 95 % 0 mm 0 W/m2
03:38 1.5 °C 0.8 °C 990.1 hPa WNW 6.4 km/h 12.9 km/h 95 % 0 mm 0 W/m2
03:43 1.5 °C 0.8 °C 990.4 hPa WNW 8 km/h 11.3 km/h 95 % 0 mm 0 W/m2
03:48 1.4 °C 0.7 °C 990.4 hPa WNW 6.4 km/h 11.3 km/h 95 % 0 mm 0 W/m2
03:53 1.4 °C 0.7 °C 990.4 hPa WNW 4.8 km/h 9.7 km/h 95 % 0.25 mm 0 W/m2
03:58 1.3 °C 0.6 °C 990.4 hPa NW 8 km/h 14.5 km/h 95 % 0.25 mm 0 W/m2
04:03 1.4 °C 0.7 °C 990.7 hPa NNW 6.4 km/h 14.5 km/h 95 % 0.25 mm 0 W/m2
04:08 1.5 °C 0.8 °C 990.7 hPa NW 8 km/h 12.9 km/h 95 % 0.25 mm 0 W/m2
04:13 1.6 °C 0.9 °C 990.7 hPa NNW 6.4 km/h 11.3 km/h 95 % 0.25 mm 0 W/m2
04:18 1.6 °C 0.9 °C 990.7 hPa NW 8 km/h 16.1 km/h 95 % 0.25 mm 0 W/m2
04:23 1.6 °C 0.9 °C 991.1 hPa WNW 8 km/h 14.5 km/h 95 % 0.25 mm 0 W/m2
04:28 1.6 °C 0.9 °C 991.4 hPa NW 6.4 km/h 12.9 km/h 95 % 0.25 mm 0 W/m2
04:33 1.6 °C 0.9 °C 991.4 hPa WNW 9.7 km/h 17.7 km/h 95 % 0.25 mm 0 W/m2
04:39 1.6 °C 0.9 °C 991.4 hPa WNW 6.4 km/h 11.3 km/h 95 % 0.25 mm 0 W/m2
04:44 1.6 °C 0.7 °C 991.8 hPa NW 8 km/h 14.5 km/h 94 % 0.25 mm 0 W/m2
04:49 1.6 °C 0.7 °C 991.8 hPa NW 12.9 km/h 17.7 km/h 94 % 0.25 mm 0 W/m2
04:54 1.7 °C 1 °C 992.1 hPa NW 9.7 km/h 16.1 km/h 95 % 0 mm 0 W/m2
04:59 1.8 °C 1.1 °C 992.1 hPa NW 9.7 km/h 24.1 km/h 95 % 0 mm 0 W/m2
05:04 1.8 °C 0.9 °C 992.1 hPa NW 8 km/h 19.3 km/h 94 % 0 mm 0 W/m2
05:06 1.8 °C 0.9 °C 992.1 hPa NW 14.5 km/h 22.5 km/h 94 % 0 mm 0 W/m2
05:12 1.9 °C 1.1 °C 992.1 hPa NW 8 km/h 14.5 km/h 94 % 0 mm 0 W/m2
05:17 1.9 °C 1.1 °C 992.1 hPa NW 9.7 km/h 19.3 km/h 94 % 0 mm 0 W/m2
05:22 2.1 °C 1.2 °C 992.4 hPa NW 8 km/h 14.5 km/h 94 % 0 mm 0 W/m2
05:27 2.1 °C 1.2 °C 992.4 hPa NW 11.3 km/h 17.7 km/h 94 % 0 mm 0 W/m2
05:31 2.1 °C 1.1 °C 992.8 hPa NW 11.3 km/h 22.5 km/h 93 % 0 mm 0 W/m2
05:34 2.1 °C 1.1 °C 992.8 hPa NW 8 km/h 12.9 km/h 93 % 0 mm 0 W/m2
05:39 2.1 °C 1.1 °C 993.1 hPa NW 11.3 km/h 20.9 km/h 93 % 0 mm 0 W/m2
05:44 2.1 °C 1.1 °C 993.1 hPa NW 12.9 km/h 19.3 km/h 93 % 0 mm 0 W/m2
05:49 2.1 °C 1.1 °C 993.1 hPa NW 9.7 km/h 16.1 km/h 93 % 0 mm 0 W/m2
05:55 2.1 °C 1.1 °C 993.5 hPa NW 8 km/h 12.9 km/h 93 % 0 mm 0 W/m2
06:00 2.2 °C 1.2 °C 993.5 hPa NW 11.3 km/h 20.9 km/h 93 % 0 mm 0 W/m2
06:05 2.2 °C 1.2 °C 993.5 hPa NW 8 km/h 14.5 km/h 93 % 0 mm 0 W/m2
06:10 2.2 °C 1.2 °C 993.8 hPa NW 9.7 km/h 16.1 km/h 93 % 0 mm 0 W/m2
06:15 2.2 °C 1.2 °C 993.8 hPa NW 11.3 km/h 19.3 km/h 93 % 0 mm 0 W/m2
06:20 2.2 °C 1.2 °C 994.1 hPa NW 9.7 km/h 19.3 km/h 93 % 0 mm 0 W/m2
06:25 2.3 °C 1.3 °C 994.1 hPa NW 11.3 km/h 19.3 km/h 93 % 0 mm 0 W/m2
06:30 2.4 °C 1.4 °C 994.5 hPa WNW 6.4 km/h 9.7 km/h 93 % 0 mm 0 W/m2
06:35 2.4 °C 1.4 °C 994.5 hPa WNW 8 km/h 14.5 km/h 93 % 0 mm 0 W/m2
06:40 2.4 °C 1.2 °C 994.8 hPa WNW 6.4 km/h 11.3 km/h 92 % 0 mm 0 W/m2
06:45 2.3 °C 1.1 °C 994.8 hPa West 6.4 km/h 9.7 km/h 92 % 0 mm 0 W/m2
06:50 2.3 °C 1.1 °C 994.8 hPa WNW 8 km/h 11.3 km/h 92 % 0 mm 0 W/m2
06:55 2.2 °C 1.1 °C 994.8 hPa WNW 11.3 km/h 17.7 km/h 92 % 0 mm 0 W/m2
07:00 2.2 °C 1.1 °C 994.8 hPa NW 9.7 km/h 16.1 km/h 92 % 0 mm 0 W/m2
07:05 2.1 °C 0.9 °C 995.1 hPa NW 11.3 km/h 17.7 km/h 92 % 0 mm 0 W/m2
07:10 2.1 °C 0.9 °C 995.1 hPa NW 12.9 km/h 24.1 km/h 92 % 0 mm 0 W/m2
07:15 2.2 °C 1.1 °C 995.1 hPa NW 9.7 km/h 16.1 km/h 92 % 0 mm 0 W/m2
07:20 2.2 °C 1.1 °C 995.1 hPa WNW 9.7 km/h 16.1 km/h 92 % 0 mm 0 W/m2
07:25 2.1 °C 0.9 °C 995.5 hPa NW 12.9 km/h 20.9 km/h 92 % 0 mm 0 W/m2
07:30 2.2 °C 0.9 °C 995.5 hPa NW 11.3 km/h 19.3 km/h 91 % 0 mm 0 W/m2
07:35 2.2 °C 0.9 °C 995.8 hPa NW 9.7 km/h 22.5 km/h 91 % 0 mm 0 W/m2
07:40 2.2 °C 0.9 °C 995.8 hPa NW 9.7 km/h 19.3 km/h 91 % 0 mm 0 W/m2
07:45 2.2 °C 0.9 °C 996.2 hPa NW 11.3 km/h 19.3 km/h 91 % 0 mm 0 W/m2
07:51 2.2 °C 0.9 °C 996.2 hPa NW 14.5 km/h 25.7 km/h 91 % 0 mm 0 W/m2
07:56 2.2 °C 0.9 °C 996.2 hPa NW 11.3 km/h 20.9 km/h 91 % 0 mm 0 W/m2
08:01 2.2 °C 0.9 °C 996.2 hPa NW 12.9 km/h 19.3 km/h 91 % 0 mm 0 W/m2
08:06 2.2 °C 0.7 °C 996.5 hPa NW 16.1 km/h 24.1 km/h 90 % 0 mm 0 W/m2
08:11 2.3 °C 0.8 °C 996.5 hPa NW 16.1 km/h 22.5 km/h 90 % 0 mm 0 W/m2
08:16 2.3 °C 0.8 °C 996.8 hPa NW 14.5 km/h 29 km/h 90 % 0 mm 5 W/m2
08:21 2.4 °C 0.9 °C 996.8 hPa NW 16.1 km/h 25.7 km/h 90 % 0 mm 7 W/m2
08:26 2.5 °C 1 °C 996.8 hPa NW 14.5 km/h 29 km/h 90 % 0 mm 12 W/m2
08:31 2.6 °C 1.1 °C 996.8 hPa NW 16.1 km/h 25.7 km/h 90 % 0.25 mm 32 W/m2
08:36 2.7 °C 1.1 °C 997.5 hPa NW 19.3 km/h 25.7 km/h 89 % 0.25 mm 26 W/m2
08:41 2.7 °C 1.1 °C 997.5 hPa NW 16.1 km/h 25.7 km/h 89 % 0.25 mm 33 W/m2
08:46 2.7 °C 1.1 °C 997.5 hPa NW 11.3 km/h 24.1 km/h 89 % 0.25 mm 37 W/m2
08:51 2.6 °C 1.1 °C 997.5 hPa NW 9.7 km/h 17.7 km/h 90 % 0.25 mm 32 W/m2
08:56 2.6 °C 1.1 °C 997.5 hPa NW 11.3 km/h 19.3 km/h 90 % 0.25 mm 26 W/m2
09:01 2.6 °C 1.1 °C 997.9 hPa NW 9.7 km/h 19.3 km/h 90 % 0.25 mm 21 W/m2
09:06 2.4 °C 0.9 °C 997.9 hPa NW 9.7 km/h 19.3 km/h 90 % 0.25 mm 19 W/m2
09:11 2.4 °C 0.9 °C 997.9 hPa WNW 11.3 km/h 17.7 km/h 90 % 0.25 mm 21 W/m2
09:16 2.4 °C 0.9 °C 997.9 hPa WNW 9.7 km/h 14.5 km/h 90 % 0.25 mm 25 W/m2
09:21 2.4 °C 0.9 °C 997.9 hPa WNW 14.5 km/h 22.5 km/h 90 % 0.25 mm 51 W/m2
09:26 2.4 °C 0.9 °C 998.2 hPa WNW 12.9 km/h 17.7 km/h 90 % 0.25 mm 160 W/m2
09:31 2.4 °C 0.9 °C 998.2 hPa NW 11.3 km/h 17.7 km/h 90 % 0 mm 156 W/m2
09:36 2.5 °C 1 °C 998.5 hPa WNW 9.7 km/h 19.3 km/h 90 % 0 mm 51 W/m2
09:41 2.6 °C 1.1 °C 998.9 hPa NW 11.3 km/h 19.3 km/h 90 % 0 mm 135 W/m2
09:46 2.7 °C 1.2 °C 998.9 hPa NW 9.7 km/h 17.7 km/h 90 % 0 mm 155 W/m2
09:51 2.8 °C 1.3 °C 999.2 hPa WNW 8 km/h 14.5 km/h 90 % 0 mm 113 W/m2
09:56 3 °C 1.5 °C 999.2 hPa NW 12.9 km/h 22.5 km/h 90 % 0 mm 97 W/m2
10:01 3.1 °C 1.6 °C 999.5 hPa NW 9.7 km/h 16.1 km/h 90 % 0 mm 216 W/m2
10:06 3.2 °C 1.7 °C 999.5 hPa NW 12.9 km/h 24.1 km/h 90 % 0 mm 218 W/m2
10:11 3.3 °C 1.7 °C 999.5 hPa NW 11.3 km/h 20.9 km/h 89 % 0 mm 62 W/m2
10:16 3.4 °C 1.8 °C 999.5 hPa WNW 14.5 km/h 20.9 km/h 89 % 0 mm 230 W/m2
10:21 3.5 °C 1.8 °C 999.5 hPa NW 12.9 km/h 22.5 km/h 89 % 0 mm 223 W/m2
10:26 3.6 °C 1.9 °C 999.5 hPa NW 11.3 km/h 19.3 km/h 89 % 0 mm 223 W/m2
10:32 3.7 °C 2.1 °C 999.9 hPa NW 12.9 km/h 19.3 km/h 89 % 0 mm 243 W/m2
10:37 3.8 °C 2 °C 999.9 hPa NW 12.9 km/h 22.5 km/h 88 % 0 mm 146 W/m2
10:42 3.9 °C 2.1 °C 1000.2 hPa NW 12.9 km/h 22.5 km/h 88 % 0 mm 253 W/m2
10:47 3.9 °C 2.1 °C 1000.2 hPa WNW 16.1 km/h 25.7 km/h 88 % 0 mm 255 W/m2
10:52 3.9 °C 2.1 °C 1000.2 hPa WNW 11.3 km/h 16.1 km/h 88 % 0 mm 250 W/m2
10:57 4.1 °C 2.1 °C 1000.2 hPa WNW 14.5 km/h 24.1 km/h 87 % 0 mm 264 W/m2
11:02 4.2 °C 2.2 °C 1000.2 hPa WNW 12.9 km/h 22.5 km/h 87 % 0 mm 279 W/m2
11:07 4.4 °C 2.4 °C 1000.2 hPa WNW 12.9 km/h 24.1 km/h 87 % 0 mm 272 W/m2
11:12 4.4 °C 2.3 °C 1000.6 hPa NW 17.7 km/h 30.6 km/h 86 % 0 mm 262 W/m2
11:17 4.6 °C 2.3 °C 1000.6 hPa NW 16.1 km/h 25.7 km/h 85 % 0 mm 258 W/m2
11:23 4.7 °C 2.4 °C 1000.6 hPa WNW 12.9 km/h 33.8 km/h 85 % 0 mm 262 W/m2
11:28 4.7 °C 2.4 °C 1000.6 hPa NW 12.9 km/h 20.9 km/h 85 % 0 mm 262 W/m2
11:33 4.8 °C 2.5 °C 1000.6 hPa WNW 14.5 km/h 20.9 km/h 85 % 0 mm 267 W/m2
11:38 4.9 °C 2.6 °C 1000.6 hPa WNW 14.5 km/h 22.5 km/h 85 % 0 mm 260 W/m2
11:43 5.1 °C 2.8 °C 1000.9 hPa NW 12.9 km/h 19.3 km/h 85 % 0 mm 258 W/m2
11:48 5.2 °C 2.7 °C 1000.9 hPa WNW 16.1 km/h 30.6 km/h 84 % 0 mm 265 W/m2
11:53 5.2 °C 2.7 °C 1000.9 hPa WNW 14.5 km/h 25.7 km/h 84 % 0 mm 265 W/m2
11:58 5.3 °C 2.8 °C 1001.2 hPa NW 14.5 km/h 22.5 km/h 84 % 0 mm 357 W/m2
12:03 5.4 °C 2.9 °C 1001.2 hPa NW 14.5 km/h 22.5 km/h 84 % 0 mm 345 W/m2
12:08 5.5 °C 3 °C 1001.2 hPa WNW 16.1 km/h 24.1 km/h 84 % 0 mm 153 W/m2
12:13 5.5 °C 3 °C 1001.6 hPa NW 11.3 km/h 17.7 km/h 84 % 0 mm 123 W/m2
12:18 5.4 °C 2.9 °C 1001.6 hPa NW 12.9 km/h 22.5 km/h 84 % 0 mm 91 W/m2
12:23 5.3 °C 2.8 °C 1001.6 hPa NW 12.9 km/h 22.5 km/h 84 % 0 mm 104 W/m2
12:28 5.3 °C 3 °C 1001.6 hPa NW 14.5 km/h 24.1 km/h 85 % 0 mm 98 W/m2
12:33 5.2 °C 2.9 °C 1001.6 hPa NW 9.7 km/h 19.3 km/h 85 % 0 mm 60 W/m2
12:38 5.2 °C 3.1 °C 1001.6 hPa North 19.3 km/h 37 km/h 86 % 0 mm 100 W/m2
12:43 5.2 °C 3.1 °C 1001.6 hPa NNW 19.3 km/h 30.6 km/h 86 % 0 mm 63 W/m2
12:48 5.2 °C 3.1 °C 1001.9 hPa NNW 12.9 km/h 33.8 km/h 86 % 0 mm 65 W/m2
12:53 5.3 °C 3.2 °C 1001.9 hPa NNW 12.9 km/h 20.9 km/h 86 % 0 mm 236 W/m2
12:58 5.3 °C 3.2 °C 1002.3 hPa NNW 16.1 km/h 32.2 km/h 86 % 0 mm 123 W/m2
15:20 5.1 °C 2.6 °C 1005 hPa NW 12.9 km/h 16.1 km/h 84 % 0 mm 19 W/m2
15:27 4.9 °C 2.4 °C 1004.6 hPa North 22.5 km/h 24.1 km/h 84 % 0 mm 12 W/m2
15:32 4.8 °C 2.3 °C 1005 hPa NNW 12.9 km/h 29 km/h 84 % 0 mm 11 W/m2
15:37 4.8 °C 2.3 °C 1005.3 hPa NW 9.7 km/h 25.7 km/h 84 % 0 mm 9 W/m2
15:42 4.7 °C 2.2 °C 1005.3 hPa NW 12.9 km/h 20.9 km/h 84 % 0 mm 7 W/m2
15:47 4.5 °C 2.1 °C 1005.6 hPa NW 9.7 km/h 17.7 km/h 84 % 0 mm 5 W/m2
15:48 4.5 °C 2.1 °C 1005.6 hPa NW 11.3 km/h 17.7 km/h 84 % 0 mm 5 W/m2
15:53 4.4 °C 2.1 °C 1005.6 hPa NW 9.7 km/h 17.7 km/h 85 % 0 mm 0 W/m2
15:58 4.3 °C 2 °C 1005.6 hPa NNW 9.7 km/h 17.7 km/h 85 % 0 mm 0 W/m2
16:03 4.3 °C 2 °C 1005.6 hPa NW 14.5 km/h 22.5 km/h 85 % 0 mm 0 W/m2
16:08 4.3 °C 2 °C 1006 hPa NW 9.7 km/h 17.7 km/h 85 % 0 mm 0 W/m2
16:13 4.2 °C 1.9 °C 1006 hPa NW 11.3 km/h 20.9 km/h 85 % 0 mm 0 W/m2
16:19 4.1 °C 1.8 °C 1006 hPa NW 12.9 km/h 24.1 km/h 85 % 0 mm 0 W/m2
16:24 4 °C 1.9 °C 1006 hPa NW 11.3 km/h 19.3 km/h 86 % 0 mm 0 W/m2
16:29 3.9 °C 1.8 °C 1006.3 hPa NW 9.7 km/h 20.9 km/h 86 % 0 mm 0 W/m2
16:34 3.8 °C 1.7 °C 1006.3 hPa NW 11.3 km/h 22.5 km/h 86 % 0 mm 0 W/m2
16:39 3.7 °C 1.6 °C 1006.3 hPa NW 9.7 km/h 16.1 km/h 86 % 0 mm 0 W/m2
16:44 3.7 °C 1.6 °C 1006.7 hPa NW 9.7 km/h 17.7 km/h 86 % 0 mm 0 W/m2
16:49 3.6 °C 1.5 °C 1006.7 hPa NW 8 km/h 16.1 km/h 86 % 0 mm 0 W/m2
16:54 3.5 °C 1.4 °C 1007 hPa NW 11.3 km/h 19.3 km/h 86 % 0 mm 0 W/m2
16:59 3.4 °C 1.3 °C 1007 hPa NW 9.7 km/h 19.3 km/h 86 % 0 mm 0 W/m2
17:04 3.4 °C 1.3 °C 1007 hPa NW 9.7 km/h 17.7 km/h 86 % 0 mm 0 W/m2
17:09 3.3 °C 1.2 °C 1007 hPa NW 11.3 km/h 24.1 km/h 86 % 0 mm 0 W/m2
17:14 3.3 °C 1.2 °C 1007 hPa NW 12.9 km/h 19.3 km/h 86 % 0 mm 0 W/m2
17:16 3.3 °C 1.2 °C 1007 hPa NW 11.3 km/h 14.5 km/h 86 % 0 mm 0 W/m2
17:21 3.3 °C 1 °C 1007.3 hPa NW 11.3 km/h 19.3 km/h 85 % 0 mm 0 W/m2
17:26 3.2 °C 0.9 °C 1007.3 hPa NNW 8 km/h 14.5 km/h 85 % 0 mm 0 W/m2
17:27 3.2 °C 0.9 °C 1007.3 hPa NNW 8 km/h 14.5 km/h 85 % 0 mm 0 W/m2
17:32 3.2 °C 0.9 °C 1007.3 hPa NW 11.3 km/h 22.5 km/h 85 % 0 mm 0 W/m2
17:37 3.2 °C 0.9 °C 1007.3 hPa NW 9.7 km/h 16.1 km/h 85 % 0 mm 0 W/m2
17:42 3.1 °C 0.8 °C 1007.7 hPa NW 14.5 km/h 24.1 km/h 85 % 0 mm 0 W/m2
17:47 3.1 °C 0.8 °C 1007.7 hPa NW 14.5 km/h 24.1 km/h 85 % 0 mm 0 W/m2
17:52 3.1 °C 0.8 °C 1007.7 hPa NW 8 km/h 12.9 km/h 85 % 0 mm 0 W/m2
17:57 3 °C 0.7 °C 1007.7 hPa NW 6.4 km/h 11.3 km/h 85 % 0 mm 0 W/m2
18:02 2.8 °C 0.5 °C 1007.7 hPa WNW 8 km/h 14.5 km/h 85 % 0 mm 0 W/m2
18:07 2.8 °C 0.5 °C 1008 hPa NW 8 km/h 12.9 km/h 85 % 0 mm 0 W/m2
18:12 2.7 °C 0.4 °C 1008 hPa WNW 11.3 km/h 20.9 km/h 85 % 0 mm 0 W/m2
18:17 2.6 °C 0.3 °C 1008 hPa WNW 6.4 km/h 16.1 km/h 85 % 0 mm 0 W/m2
18:22 2.6 °C 0.3 °C 1008.4 hPa NW 9.7 km/h 12.9 km/h 85 % 0 mm 0 W/m2
18:28 2.4 °C 0.3 °C 1008.4 hPa WNW 8 km/h 14.5 km/h 86 % 0 mm 0 W/m2
18:32 2.4 °C 0.3 °C 1008.4 hPa WNW 8 km/h 16.1 km/h 86 % 0 mm 0 W/m2
18:37 2.4 °C 0.3 °C 1008.7 hPa WNW 8 km/h 14.5 km/h 86 % 0 mm 0 W/m2
18:42 2.3 °C 0.2 °C 1008.4 hPa WNW 6.4 km/h 14.5 km/h 86 % 0 mm 0 W/m2
18:47 2.3 °C 0.2 °C 1008.7 hPa NW 8 km/h 14.5 km/h 86 % 0 mm 0 W/m2
18:52 2.2 °C 0.1 °C 1008.7 hPa WNW 8 km/h 14.5 km/h 86 % 0 mm 0 W/m2
18:57 2.2 °C 0.1 °C 1008.7 hPa WNW 9.7 km/h 16.1 km/h 86 % 0 mm 0 W/m2
19:02 2.2 °C 0.1 °C 1008.7 hPa WNW 9.7 km/h 17.7 km/h 86 % 0 mm 0 W/m2
19:08 2.2 °C 0.1 °C 1009 hPa WNW 8 km/h 12.9 km/h 86 % 0 mm 0 W/m2
19:13 2.2 °C 0.1 °C 1009 hPa WNW 6.4 km/h 11.3 km/h 86 % 0 mm 0 W/m2
19:18 2.1 °C 0 °C 1009.4 hPa WNW 8 km/h 12.9 km/h 86 % 0 mm 0 W/m2
19:23 2.1 °C 0 °C 1009 hPa West 6.4 km/h 11.3 km/h 86 % 0 mm 0 W/m2
19:28 2 °C -0.1 °C 1009.4 hPa West 4.8 km/h 9.7 km/h 86 % 0 mm 0 W/m2
19:33 1.9 °C -0.2 °C 1009.4 hPa WNW 4.8 km/h 9.7 km/h 86 % 0 mm 0 W/m2
19:38 1.8 °C -0.3 °C 1009.7 hPa WNW 8 km/h 12.9 km/h 86 % 0 mm 0 W/m2
19:43 1.8 °C -0.1 °C 1009.4 hPa WNW 6.4 km/h 9.7 km/h 87 % 0 mm 0 W/m2
19:48 1.7 °C -0.2 °C 1009.7 hPa West 4.8 km/h 9.7 km/h 87 % 0 mm 0 W/m2
19:53 1.6 °C -0.3 °C 1009.7 hPa West 3.2 km/h 8 km/h 87 % 0 mm 0 W/m2
19:58 1.4 °C -0.6 °C 1009.7 hPa WNW 6.4 km/h 9.7 km/h 87 % 0 mm 0 W/m2
20:03 1.3 °C -0.4 °C 1009.7 hPa WNW 8 km/h 11.3 km/h 88 % 0 mm 0 W/m2
20:08 1.3 °C -0.4 °C 1009.7 hPa WNW 4.8 km/h 9.7 km/h 88 % 0 mm 0 W/m2
20:13 1.2 °C -0.6 °C 1009.7 hPa WNW 6.4 km/h 11.3 km/h 88 % 0 mm 0 W/m2
20:18 1.2 °C -0.4 °C 1009.7 hPa WNW 9.7 km/h 14.5 km/h 89 % 0 mm 0 W/m2
20:23 1.2 °C -0.4 °C 1009.7 hPa WNW 9.7 km/h 16.1 km/h 89 % 0 mm 0 W/m2
20:28 1.3 °C -0.3 °C 1009.7 hPa NW 14.5 km/h 19.3 km/h 89 % 0 mm 0 W/m2
20:33 1.4 °C -0.2 °C 1009.7 hPa WNW 11.3 km/h 19.3 km/h 89 % 0 mm 0 W/m2
20:38 1.5 °C -0.1 °C 1009.7 hPa NW 12.9 km/h 20.9 km/h 89 % 0 mm 0 W/m2
20:43 1.6 °C -0.2 °C 1010 hPa WNW 9.7 km/h 16.1 km/h 88 % 0 mm 0 W/m2
20:48 1.6 °C -0.2 °C 1010 hPa NW 14.5 km/h 22.5 km/h 88 % 0 mm 0 W/m2
20:53 1.8 °C -0.1 °C 1010 hPa NW 11.3 km/h 17.7 km/h 87 % 0 mm 0 W/m2
20:58 1.8 °C -0.1 °C 1010 hPa NW 8 km/h 19.3 km/h 87 % 0 mm 0 W/m2
21:03 1.8 °C -0.3 °C 1010 hPa WNW 9.7 km/h 16.1 km/h 86 % 0 mm 0 W/m2
21:09 1.8 °C -0.3 °C 1010.4 hPa WNW 9.7 km/h 16.1 km/h 86 % 0 mm 0 W/m2
21:14 1.7 °C -0.4 °C 1010.4 hPa WNW 6.4 km/h 11.3 km/h 86 % 0 mm 0 W/m2
21:19 1.7 °C -0.4 °C 1010.4 hPa WNW 9.7 km/h 16.1 km/h 86 % 0 mm 0 W/m2
21:24 1.6 °C -0.5 °C 1010.4 hPa WNW 9.7 km/h 16.1 km/h 86 % 0 mm 0 W/m2
21:29 1.7 °C -0.2 °C 1010.7 hPa WNW 9.7 km/h 14.5 km/h 87 % 0 mm 0 W/m2
21:34 1.6 °C -0.3 °C 1010.7 hPa WNW 11.3 km/h 16.1 km/h 87 % 0 mm 0 W/m2
21:39 1.6 °C -0.3 °C 1010.7 hPa WNW 9.7 km/h 14.5 km/h 87 % 0 mm 0 W/m2
21:44 1.6 °C -0.3 °C 1010.7 hPa WNW 9.7 km/h 14.5 km/h 87 % 0 mm 0 W/m2
21:49 1.6 °C -0.3 °C 1010.7 hPa WNW 9.7 km/h 14.5 km/h 87 % 0 mm 0 W/m2
21:54 1.5 °C -0.4 °C 1010.7 hPa WNW 11.3 km/h 17.7 km/h 87 % 0 mm 0 W/m2
21:59 1.5 °C -0.4 °C 1010.7 hPa WNW 11.3 km/h 16.1 km/h 87 % 0 mm 0 W/m2
22:05 1.5 °C -0.4 °C 1010.7 hPa WNW 12.9 km/h 19.3 km/h 87 % 0 mm 0 W/m2
22:10 1.6 °C -0.3 °C 1010.7 hPa WNW 11.3 km/h 17.7 km/h 87 % 0 mm 0 W/m2
22:13 1.6 °C -0.3 °C 1010.7 hPa WNW 12.9 km/h 17.7 km/h 87 % 0 mm 0 W/m2
22:18 1.6 °C -0.3 °C 1011.1 hPa WNW 9.7 km/h 16.1 km/h 87 % 0 mm 0 W/m2
22:20 1.6 °C -0.5 °C 1011.1 hPa WNW 11.3 km/h 16.1 km/h 86 % 0 mm 0 W/m2
22:25 1.5 °C -0.6 °C 1011.1 hPa WNW 11.3 km/h 17.7 km/h 86 % 0 mm 0 W/m2
22:30 1.5 °C -0.6 °C 1011.1 hPa WNW 11.3 km/h 17.7 km/h 86 % 0 mm 0 W/m2
22:32 1.5 °C -0.6 °C 1011.1 hPa WNW 11.3 km/h 19.3 km/h 86 % 0 mm 0 W/m2
22:37 1.4 °C -0.7 °C 1011.4 hPa WNW 9.7 km/h 17.7 km/h 86 % 0 mm 0 W/m2
22:39 1.4 °C -0.7 °C 1011.4 hPa WNW 9.7 km/h 17.7 km/h 86 % 0 mm 0 W/m2
22:44 1.4 °C -0.7 °C 1011.4 hPa WNW 8 km/h 11.3 km/h 86 % 0 mm 0 W/m2
22:46 1.3 °C -0.8 °C 1011.4 hPa WNW 9.7 km/h 14.5 km/h 86 % 0 mm 0 W/m2
22:51 1.3 °C -0.8 °C 1011.4 hPa WNW 9.7 km/h 14.5 km/h 86 % 0 mm 0 W/m2
22:55 1.3 °C -0.8 °C 1011.4 hPa WNW 9.7 km/h 14.5 km/h 86 % 0 mm 0 W/m2
23:00 1.3 °C -0.6 °C 1011.4 hPa WNW 9.7 km/h 14.5 km/h 87 % 0 mm 0 W/m2
23:05 1.3 °C -0.6 °C 1011.4 hPa WNW 9.7 km/h 16.1 km/h 87 % 0 mm 0 W/m2
23:08 1.3 °C -0.6 °C 1011.4 hPa WNW 11.3 km/h 19.3 km/h 87 % 0 mm 0 W/m2
23:09 1.3 °C -0.6 °C 1011.4 hPa WNW 11.3 km/h 19.3 km/h 87 % 0 mm 0 W/m2
23:14 1.3 °C -0.8 °C 1011.4 hPa WNW 11.3 km/h 17.7 km/h 86 % 0 mm 0 W/m2
23:16 1.3 °C -0.8 °C 1011.4 hPa WNW 11.3 km/h 16.1 km/h 86 % 0 mm 0 W/m2
23:21 1.3 °C -0.8 °C 1011.7 hPa WNW 9.7 km/h 14.5 km/h 86 % 0 mm 0 W/m2
23:22 1.3 °C -0.8 °C 1011.7 hPa WNW 9.7 km/h 14.5 km/h 86 % 0 mm 0 W/m2
23:25 1.2 °C -0.9 °C 1011.7 hPa WNW 8 km/h 12.9 km/h 86 % 0 mm 0 W/m2
23:28 1.2 °C -0.9 °C 1011.7 hPa WNW 9.7 km/h 14.5 km/h 86 % 0 mm 0 W/m2
23:31 1.2 °C -0.9 °C 1011.4 hPa WNW 9.7 km/h 14.5 km/h 86 % 0 mm 0 W/m2
23:36 1.3 °C -0.8 °C 1011.4 hPa WNW 9.7 km/h 16.1 km/h 86 % 0 mm 0 W/m2
23:38 1.3 °C -0.8 °C 1011.4 hPa WNW 8 km/h 12.9 km/h 86 % 0 mm 0 W/m2
23:43 1.3 °C -0.8 °C 1011.7 hPa WNW 9.7 km/h 19.3 km/h 86 % 0 mm 0 W/m2
23:45 1.3 °C -0.8 °C 1011.7 hPa WNW 11.3 km/h 16.1 km/h 86 % 0 mm 0 W/m2
23:50 1.3 °C -0.8 °C 1011.4 hPa WNW 9.7 km/h 16.1 km/h 86 % 0 mm 0 W/m2
23:51 1.3 °C -0.8 °C 1011.4 hPa WNW 11.3 km/h 16.1 km/h 86 % 0 mm 0 W/m2
23:56 1.4 °C -0.8 °C 1011.4 hPa WNW 11.3 km/h 17.7 km/h 85 % 0 mm 0 W/m2
23:57 1.4 °C -0.8 °C 1011.4 hPa WNW 11.3 km/h 17.7 km/h 85 % 0 mm 0 W/m2
23:58 1.4 °C -0.8 °C 1011.4 hPa WNW 11.3 km/h 16.1 km/h 85 % 0 mm 0 W/m2
Delerius-Weather
Compliments of Weather Underground - 2.25 mb

Data updates at regular intervals.